Opal, Wyoming
Current Conditions -  °F | °C
As of 1:50 PM on Sunday 23 Nov 2014 (Local Time) from KEMM Reporting Station
Scattered Clouds Scattered Clouds  
Wind Chill: 11°   Ceiling: Unl
Heat Index: 25°   Visibility: 10mi
Dew Point: 18°   Wind: 20mph
Humidity: 74%   Direction: 290°WNW
Pressure: 30.05"   Gusts: 29mph
Location:  41.77°N, 110.33°W
Report Text: KEMM 232050Z AUTO 29017G25KT 10SM SCT021 SCT026 SCT033 M04/M08 A3005 RMK AO2
Loading
Personal Weather Stations






























Interactive Weather Map New forecast layout! Learn more

10-Day Weather Forecast

Advertisements
Track Severe Weather on mobile